createdAt,value
2018-09-17T00:00:00.589Z,0
2018-09-17T00:01:01.976Z,0
2018-09-17T00:02:03.373Z,0
2018-09-17T00:03:04.777Z,0
2018-09-17T00:04:06.167Z,0
2018-09-17T00:05:07.554Z,0
2018-09-17T00:06:08.942Z,0
2018-09-17T00:07:10.341Z,0
2018-09-17T00:08:11.730Z,0
2018-09-17T00:09:13.125Z,0
2018-09-17T00:10:14.514Z,0
2018-09-17T00:11:15.902Z,0
2018-09-17T00:12:17.290Z,0
2018-09-17T00:13:18.682Z,0
2018-09-17T00:14:20.075Z,0
2018-09-17T00:15:21.465Z,0
2018-09-17T00:16:22.857Z,0
2018-09-17T00:17:24.250Z,0
2018-09-17T00:18:25.640Z,0
2018-09-17T00:19:27.031Z,0
2018-09-17T00:20:28.423Z,0
2018-09-17T00:21:29.816Z,0
2018-09-17T00:22:31.206Z,0
2018-09-17T00:23:32.598Z,0
2018-09-17T00:24:33.995Z,0
2018-09-17T00:25:35.382Z,0
2018-09-17T00:26:36.775Z,0
2018-09-17T00:27:38.167Z,0
2018-09-17T00:28:39.563Z,0
2018-09-17T00:29:40.954Z,0
2018-09-17T00:30:42.344Z,0
2018-09-17T00:31:43.735Z,0
2018-09-17T00:32:45.123Z,0
2018-09-17T00:33:46.568Z,0
2018-09-17T00:34:47.989Z,0
2018-09-17T00:35:49.381Z,0
2018-09-17T00:36:50.770Z,0
2018-09-17T00:37:52.158Z,0
2018-09-17T00:38:53.554Z,0
2018-09-17T00:39:54.949Z,0
2018-09-17T00:40:56.336Z,0
2018-09-17T00:41:57.726Z,0
2018-09-17T00:42:59.131Z,0
2018-09-17T00:44:00.521Z,0
2018-09-17T00:45:01.913Z,0
2018-09-17T00:46:03.301Z,0
2018-09-17T00:47:04.696Z,0
2018-09-17T00:48:06.082Z,0
2018-09-17T00:49:07.474Z,0
2018-09-17T00:50:08.868Z,0
2018-09-17T00:51:10.254Z,0
2018-09-17T00:52:11.650Z,0
2018-09-17T00:53:13.038Z,0
2018-09-17T00:54:14.423Z,0
2018-09-17T00:55:15.811Z,0
2018-09-17T00:56:17.198Z,0
2018-09-17T00:57:18.589Z,0
2018-09-17T00:58:19.983Z,0
2018-09-17T00:59:21.370Z,0
2018-09-17T01:00:22.761Z,0
2018-09-17T01:01:24.152Z,0
2018-09-17T01:02:25.541Z,0
2018-09-17T01:03:26.934Z,0
2018-09-17T01:04:28.323Z,0
2018-09-17T01:05:29.713Z,0
2018-09-17T01:06:31.104Z,0
2018-09-17T01:07:32.497Z,0
2018-09-17T01:08:33.891Z,0
2018-09-17T01:09:35.297Z,0
2018-09-17T01:10:36.685Z,0
2018-09-17T01:11:38.075Z,0
2018-09-17T01:12:39.468Z,0
2018-09-17T01:13:40.855Z,0
2018-09-17T01:14:42.257Z,0
2018-09-17T01:15:43.643Z,0
2018-09-17T01:16:45.028Z,0
2018-09-17T01:17:46.417Z,0
2018-09-17T01:18:47.805Z,0
2018-09-17T01:19:49.196Z,0
2018-09-17T01:20:50.585Z,0
2018-09-17T01:21:52.086Z,0
2018-09-17T01:22:53.532Z,0
2018-09-17T01:23:54.928Z,0
2018-09-17T01:24:56.317Z,0
2018-09-17T01:25:57.705Z,0
2018-09-17T01:26:59.097Z,0
2018-09-17T01:28:00.489Z,0
2018-09-17T01:29:01.887Z,0
2018-09-17T01:30:03.279Z,0
2018-09-17T01:31:04.670Z,0
2018-09-17T01:32:06.060Z,0
2018-09-17T01:33:07.450Z,0
2018-09-17T01:34:08.843Z,0
2018-09-17T01:35:10.231Z,0
2018-09-17T01:36:11.623Z,0
2018-09-17T01:37:13.010Z,0
2018-09-17T01:38:14.397Z,0
2018-09-17T01:39:15.788Z,0
2018-09-17T01:40:17.179Z,0
2018-09-17T01:41:18.566Z,0
2018-09-17T01:42:19.952Z,0
2018-09-17T01:43:21.344Z,0
2018-09-17T01:44:22.732Z,0
2018-09-17T01:45:24.118Z,0
2018-09-17T01:46:25.516Z,0
2018-09-17T01:47:26.897Z,0
2018-09-17T01:48:28.291Z,0
2018-09-17T01:49:29.680Z,0
2018-09-17T01:50:31.071Z,0
2018-09-17T01:51:32.459Z,0
2018-09-17T01:52:33.848Z,0
2018-09-17T01:53:35.239Z,0
2018-09-17T01:54:36.629Z,0
2018-09-17T01:55:38.017Z,0
2018-09-17T01:56:39.408Z,0
2018-09-17T01:57:40.798Z,0
2018-09-17T01:58:42.187Z,0
2018-09-17T01:59:43.577Z,0
2018-09-17T02:00:44.964Z,0
2018-09-17T02:01:46.354Z,0
2018-09-17T02:02:47.745Z,0
2018-09-17T02:03:49.141Z,0
2018-09-17T02:04:50.527Z,0
2018-09-17T02:05:51.914Z,0
2018-09-17T02:06:53.301Z,0
2018-09-17T02:07:54.687Z,0
2018-09-17T02:08:56.096Z,0
2018-09-17T02:09:57.509Z,0
2018-09-17T02:10:58.880Z,0
2018-09-17T02:12:00.272Z,0
2018-09-17T02:13:01.685Z,0
2018-09-17T02:14:03.063Z,0
2018-09-17T02:15:04.452Z,0
2018-09-17T02:16:05.840Z,0
2018-09-17T02:17:07.231Z,0
2018-09-17T02:18:08.619Z,0
2018-09-17T02:19:10.009Z,0
2018-09-17T02:20:11.399Z,0
2018-09-17T02:21:12.790Z,0
2018-09-17T02:22:14.179Z,0
2018-09-17T02:23:15.573Z,0
2018-09-17T02:24:16.961Z,0
2018-09-17T02:25:18.354Z,0
2018-09-17T02:26:19.744Z,0
2018-09-17T02:27:21.132Z,0
2018-09-17T02:28:22.522Z,0
2018-09-17T02:29:23.908Z,0
2018-09-17T02:30:25.298Z,0
2018-09-17T02:31:26.685Z,0
2018-09-17T02:32:28.082Z,0
2018-09-17T02:33:29.468Z,0
2018-09-17T02:34:30.856Z,0
2018-09-17T02:35:32.256Z,0
2018-09-17T02:36:33.643Z,0
2018-09-17T02:37:35.033Z,0
2018-09-17T02:38:36.423Z,0
2018-09-17T02:39:37.812Z,0
2018-09-17T02:40:39.207Z,0
2018-09-17T02:41:40.590Z,0
2018-09-17T02:42:41.979Z,0
2018-09-17T02:43:43.368Z,0
2018-09-17T02:44:44.760Z,0
2018-09-17T02:45:46.151Z,0
2018-09-17T02:46:47.539Z,0
2018-09-17T02:47:48.936Z,0
2018-09-17T02:48:50.327Z,0
2018-09-17T02:49:51.711Z,0
2018-09-17T02:50:53.110Z,0
2018-09-17T02:51:54.486Z,0
2018-09-17T02:52:55.873Z,0
2018-09-17T02:53:57.267Z,0
2018-09-17T02:54:58.657Z,0
2018-09-17T02:56:00.039Z,0
2018-09-17T02:57:01.463Z,0
2018-09-17T02:58:02.849Z,0
2018-09-17T02:59:04.238Z,0
2018-09-17T03:00:05.630Z,0
2018-09-17T03:01:07.055Z,0
2018-09-17T03:02:08.447Z,0
2018-09-17T03:03:09.835Z,0
2018-09-17T03:04:11.223Z,0
2018-09-17T03:05:12.617Z,0
2018-09-17T03:06:14.006Z,0
2018-09-17T03:07:15.434Z,0
2018-09-17T03:08:16.788Z,0
2018-09-17T03:09:18.181Z,0
2018-09-17T03:10:19.571Z,0
2018-09-17T03:11:20.959Z,0
2018-09-17T03:12:22.344Z,0
2018-09-17T03:13:23.738Z,0
2018-09-17T03:14:25.126Z,0
2018-09-17T03:15:26.517Z,0
2018-09-17T03:16:27.909Z,0
2018-09-17T03:17:29.293Z,0
2018-09-17T03:18:30.677Z,0
2018-09-17T03:19:32.067Z,0
2018-09-17T03:20:33.462Z,0
2018-09-17T03:21:34.848Z,0
2018-09-17T03:22:36.238Z,0
2018-09-17T03:23:37.627Z,0
2018-09-17T03:24:39.106Z,0
2018-09-17T03:25:40.414Z,0
2018-09-17T03:26:41.794Z,0
2018-09-17T03:27:43.187Z,0
2018-09-17T03:28:44.578Z,0
2018-09-17T03:29:45.974Z,0
2018-09-17T03:30:47.363Z,0
2018-09-17T03:31:48.752Z,0
2018-09-17T03:32:50.143Z,0
2018-09-17T03:33:51.528Z,0
2018-09-17T03:34:52.916Z,0
2018-09-17T03:35:54.304Z,0
2018-09-17T03:36:55.695Z,0
2018-09-17T03:37:57.088Z,0
2018-09-17T03:38:58.476Z,0
2018-09-17T03:39:59.863Z,0
2018-09-17T03:41:01.249Z,0
2018-09-17T03:42:02.642Z,0
2018-09-17T03:43:04.034Z,0
2018-09-17T03:44:05.466Z,0
2018-09-17T03:45:06.855Z,0
2018-09-17T03:46:08.273Z,0
2018-09-17T03:47:09.628Z,0
2018-09-17T03:48:11.018Z,0
2018-09-17T03:49:12.408Z,0
2018-09-17T03:50:13.798Z,0
2018-09-17T03:51:15.185Z,0
2018-09-17T03:52:16.578Z,0
2018-09-17T03:53:17.966Z,0
2018-09-17T03:54:19.354Z,0
2018-09-17T03:55:20.742Z,0
2018-09-17T03:56:22.128Z,0
2018-09-17T03:57:23.526Z,0
2018-09-17T03:58:24.914Z,0
2018-09-17T03:59:26.304Z,0
2018-09-17T04:00:27.689Z,0
2018-09-17T04:01:29.082Z,0
2018-09-17T04:02:30.471Z,0
2018-09-17T04:03:31.860Z,0
2018-09-17T04:04:33.254Z,0
2018-09-17T04:05:34.638Z,0
2018-09-17T04:06:36.054Z,0
2018-09-17T04:07:37.450Z,0
2018-09-17T04:08:38.832Z,0
2018-09-17T04:09:40.230Z,0
2018-09-17T04:10:41.624Z,0
2018-09-17T04:11:43.021Z,0
2018-09-17T04:12:44.403Z,0
2018-09-17T04:13:45.794Z,0
2018-09-17T04:14:47.187Z,0
2018-09-17T04:15:48.576Z,0
2018-09-17T04:16:49.968Z,0
2018-09-17T04:17:51.357Z,0
2018-09-17T04:18:52.747Z,0
2018-09-17T04:19:54.137Z,0
2018-09-17T04:20:55.528Z,0
2018-09-17T04:21:56.914Z,0
2018-09-17T04:22:58.303Z,0
2018-09-17T04:23:59.687Z,0
2018-09-17T04:25:01.080Z,0
2018-09-17T04:26:02.469Z,0
2018-09-17T04:27:03.855Z,0
2018-09-17T04:28:05.247Z,0
2018-09-17T04:29:06.635Z,0
2018-09-17T04:30:08.017Z,0
2018-09-17T04:31:09.411Z,0
2018-09-17T04:32:10.795Z,0
2018-09-17T04:33:12.237Z,0
2018-09-17T04:34:13.587Z,0
2018-09-17T04:35:14.985Z,0
2018-09-17T04:36:16.369Z,0
2018-09-17T04:37:17.760Z,0
2018-09-17T04:38:19.182Z,0
2018-09-17T04:39:20.560Z,0
2018-09-17T04:40:21.955Z,0
2018-09-17T04:41:23.343Z,0
2018-09-17T04:42:24.731Z,0
2018-09-17T04:43:26.124Z,0
2018-09-17T04:44:27.511Z,0
2018-09-17T04:45:28.903Z,4
2018-09-17T04:46:30.301Z,4
2018-09-17T04:47:31.688Z,0
2018-09-17T04:48:33.078Z,0
2018-09-17T04:49:34.467Z,0
2018-09-17T04:50:35.855Z,4
2018-09-17T04:51:37.239Z,0
2018-09-17T04:52:38.627Z,4
2018-09-17T04:53:40.015Z,4
2018-09-17T04:54:41.405Z,4
2018-09-17T04:55:42.793Z,4
2018-09-17T04:56:44.186Z,8
2018-09-17T04:57:45.575Z,8
2018-09-17T04:58:46.990Z,8
2018-09-17T04:59:48.380Z,12
2018-09-17T05:00:49.768Z,16
2018-09-17T05:01:51.157Z,16
2018-09-17T05:02:52.547Z,20
2018-09-17T05:03:53.937Z,24
2018-09-17T05:04:55.323Z,24
2018-09-17T05:05:56.713Z,28
2018-09-17T05:06:58.103Z,36
2018-09-17T05:07:59.490Z,40
2018-09-17T05:09:00.880Z,48
2018-09-17T05:10:02.272Z,48
2018-09-17T05:11:03.661Z,56
2018-09-17T05:12:05.051Z,56
2018-09-17T05:13:06.498Z,60
2018-09-17T05:14:07.830Z,68
2018-09-17T05:15:09.223Z,72
2018-09-17T05:16:10.610Z,80
2018-09-17T05:17:12.000Z,88
2018-09-17T05:18:13.394Z,92
2018-09-17T05:19:14.785Z,100
2018-09-17T05:20:16.174Z,104
2018-09-17T05:21:17.564Z,116
2018-09-17T05:22:18.955Z,120
2018-09-17T05:23:20.348Z,132
2018-09-17T05:24:21.738Z,140
2018-09-17T05:25:23.132Z,152
2018-09-17T05:26:24.520Z,164
2018-09-17T05:27:25.907Z,176
2018-09-17T05:28:27.300Z,188
2018-09-17T05:29:28.690Z,200
2018-09-17T05:30:30.085Z,208
2018-09-17T05:31:31.477Z,220
2018-09-17T05:32:32.881Z,228
2018-09-17T05:33:34.263Z,236
2018-09-17T05:34:35.653Z,248
2018-09-17T05:35:37.045Z,260
2018-09-17T05:36:38.436Z,276
2018-09-17T05:37:39.828Z,288
2018-09-17T05:38:41.222Z,300
2018-09-17T05:39:42.619Z,316
2018-09-17T05:40:44.002Z,328
2018-09-17T05:41:45.399Z,344
2018-09-17T05:42:46.805Z,360
2018-09-17T05:43:48.194Z,376
2018-09-17T05:44:49.588Z,388
2018-09-17T05:45:50.985Z,404
2018-09-17T05:46:52.371Z,416
2018-09-17T05:47:53.762Z,428
2018-09-17T05:48:55.153Z,436
2018-09-17T05:49:56.542Z,456
2018-09-17T05:50:57.932Z,468
2018-09-17T05:51:59.330Z,480
2018-09-17T05:53:00.725Z,492
2018-09-17T05:54:02.133Z,504
2018-09-17T05:55:03.524Z,508
2018-09-17T05:56:04.985Z,516
2018-09-17T05:57:06.376Z,520
2018-09-17T05:58:07.764Z,524
2018-09-17T05:59:09.158Z,524
2018-09-17T06:00:10.553Z,532
2018-09-17T06:01:11.941Z,536
2018-09-17T06:02:13.343Z,544
2018-09-17T06:03:14.733Z,548
2018-09-17T06:04:16.125Z,556
2018-09-17T06:05:17.551Z,560
2018-09-17T06:06:18.944Z,568
2018-09-17T06:07:20.340Z,576
2018-09-17T06:08:21.748Z,584
2018-09-17T06:09:23.140Z,588
2018-09-17T06:10:24.529Z,600
2018-09-17T06:11:25.924Z,608
2018-09-17T06:12:27.317Z,616
2018-09-17T06:13:28.708Z,620
2018-09-17T06:14:30.133Z,628
2018-09-17T06:15:31.521Z,632
2018-09-17T06:16:32.914Z,636
2018-09-17T06:17:34.400Z,644
2018-09-17T06:18:35.703Z,652
2018-09-17T06:19:37.094Z,660
2018-09-17T06:20:38.491Z,668
2018-09-17T06:21:39.880Z,684
2018-09-17T06:22:41.269Z,688
2018-09-17T06:23:42.660Z,704
2018-09-17T06:24:44.050Z,708
2018-09-17T06:25:45.441Z,720
2018-09-17T06:26:46.833Z,728
2018-09-17T06:27:48.226Z,732
2018-09-17T06:28:49.675Z,744
2018-09-17T06:29:51.011Z,756
2018-09-17T06:30:52.404Z,768
2018-09-17T06:31:53.787Z,776
2018-09-17T06:32:55.187Z,784
2018-09-17T06:33:56.577Z,792
2018-09-17T06:34:57.972Z,804
2018-09-17T06:35:59.365Z,812
2018-09-17T06:37:00.770Z,820
2018-09-17T06:38:02.160Z,828
2018-09-17T06:39:03.548Z,832
2018-09-17T06:40:04.938Z,836
2018-09-17T06:41:06.332Z,848
2018-09-17T06:42:07.724Z,856
2018-09-17T06:43:09.119Z,860
2018-09-17T06:44:10.515Z,868
2018-09-17T06:45:11.907Z,872
2018-09-17T06:46:13.295Z,880
2018-09-17T06:47:14.686Z,880
2018-09-17T06:48:16.080Z,888
2018-09-17T06:49:17.474Z,892
2018-09-17T06:50:18.867Z,896
2018-09-17T06:51:20.314Z,892
2018-09-17T06:52:21.678Z,896
2018-09-17T06:53:23.274Z,896
2018-09-17T06:54:24.643Z,896
2018-09-17T06:55:26.039Z,896
2018-09-17T06:56:27.433Z,900
2018-09-17T06:57:28.828Z,904
2018-09-17T06:58:30.232Z,908
2018-09-17T06:59:31.610Z,908
2018-09-17T07:00:33.004Z,908
2018-09-17T07:01:34.400Z,908
2018-09-17T07:02:35.793Z,912
2018-09-17T07:03:37.194Z,916
2018-09-17T07:04:38.591Z,924
2018-09-17T07:05:39.984Z,932
2018-09-17T07:06:41.378Z,940
2018-09-17T07:07:42.773Z,948
2018-09-17T07:08:44.164Z,956
2018-09-17T07:09:45.553Z,960
2018-09-17T07:10:46.945Z,968
2018-09-17T07:11:48.337Z,972
2018-09-17T07:12:49.732Z,976
2018-09-17T07:13:51.124Z,980
2018-09-17T07:14:52.513Z,980
2018-09-17T07:15:53.905Z,984
2018-09-17T07:16:55.300Z,996
2018-09-17T07:17:56.703Z,1000
2018-09-17T07:18:58.093Z,1008
2018-09-17T07:19:59.491Z,1012
2018-09-17T07:21:00.881Z,1020
2018-09-17T07:22:02.271Z,1028
2018-09-17T07:23:03.666Z,1044
2018-09-17T07:24:05.062Z,1052
2018-09-17T07:25:06.451Z,1064
2018-09-17T07:26:07.873Z,1080
2018-09-17T07:27:09.242Z,1100
2018-09-17T07:28:10.637Z,1120
2018-09-17T07:29:12.033Z,1144
2018-09-17T07:30:13.430Z,1172
2018-09-17T07:31:14.826Z,1200
2018-09-17T07:32:16.226Z,1220
2018-09-17T07:33:17.619Z,1244
2018-09-17T07:34:19.016Z,1268
2018-09-17T07:35:20.412Z,1288
2018-09-17T07:36:21.839Z,1308
2018-09-17T07:37:23.194Z,1328
2018-09-17T07:38:24.659Z,1348
2018-09-17T07:39:26.055Z,1360
2018-09-17T07:40:27.452Z,1376
2018-09-17T07:41:28.849Z,1392
2018-09-17T07:42:30.236Z,1400
2018-09-17T07:43:31.630Z,1412
2018-09-17T07:44:33.021Z,1420
2018-09-17T07:45:34.415Z,1432
2018-09-17T07:46:35.811Z,1448
2018-09-17T07:47:37.212Z,1464
2018-09-17T07:48:38.603Z,1484
2018-09-17T07:49:39.999Z,1496
2018-09-17T07:50:41.394Z,1516
2018-09-17T07:51:42.785Z,1544
2018-09-17T07:52:44.180Z,1568
2018-09-17T07:53:45.578Z,1588
2018-09-17T07:54:46.972Z,1612
2018-09-17T07:55:48.374Z,1632
2018-09-17T07:56:49.768Z,1648
2018-09-17T07:57:51.163Z,1664
2018-09-17T07:58:52.622Z,1680
2018-09-17T07:59:53.958Z,1716
2018-09-17T08:00:55.358Z,1744
2018-09-17T08:01:56.753Z,1776
2018-09-17T08:02:58.149Z,1808
2018-09-17T08:03:59.547Z,1836
2018-09-17T08:05:00.940Z,1864
2018-09-17T08:06:02.338Z,1908
2018-09-17T08:07:03.734Z,1948
2018-09-17T08:08:05.137Z,1980
2018-09-17T08:09:06.530Z,2000
2018-09-17T08:10:07.926Z,2020
2018-09-17T08:11:09.320Z,2080
2018-09-17T08:12:10.715Z,2128
2018-09-17T08:13:12.137Z,2136
2018-09-17T08:14:13.537Z,2184
2018-09-17T08:15:14.936Z,2224
2018-09-17T08:16:16.332Z,2256
2018-09-17T08:17:17.727Z,2296
2018-09-17T08:18:19.124Z,2404
2018-09-17T08:19:20.521Z,2488
2018-09-17T08:20:21.919Z,2528
2018-09-17T08:21:23.323Z,2620
2018-09-17T08:22:24.713Z,2704
2018-09-17T08:23:26.110Z,2788
2018-09-17T08:24:27.564Z,2928
2018-09-17T08:25:28.933Z,3004
2018-09-17T08:26:30.312Z,3064
2018-09-17T08:27:31.711Z,3148
2018-09-17T08:28:33.111Z,3248
2018-09-17T08:29:34.530Z,3296
2018-09-17T08:30:35.926Z,3340
2018-09-17T08:31:37.371Z,3492
2018-09-17T08:32:38.723Z,3488
2018-09-17T08:33:40.121Z,3488
2018-09-17T08:34:41.518Z,3556
2018-09-17T08:35:42.915Z,3956
2018-09-17T08:36:44.310Z,4108
2018-09-17T08:37:45.707Z,4180
2018-09-17T08:38:47.106Z,4300
2018-09-17T08:39:48.508Z,4428
2018-09-17T08:40:49.897Z,4556
2018-09-17T08:41:51.299Z,4592
2018-09-17T08:42:52.691Z,4592
2018-09-17T08:43:54.090Z,4608
2018-09-17T08:44:55.486Z,4708
2018-09-17T08:45:56.891Z,4756
2018-09-17T08:46:58.285Z,4772
2018-09-17T08:47:59.680Z,4828
2018-09-17T08:49:01.081Z,4964
2018-09-17T08:50:02.485Z,5104
2018-09-17T08:51:03.883Z,5144
2018-09-17T08:52:05.284Z,5148
2018-09-17T08:53:06.739Z,5300
2018-09-17T08:54:08.078Z,5544
2018-09-17T08:55:09.481Z,5708
2018-09-17T08:56:10.879Z,5884
2018-09-17T08:57:12.271Z,6108
2018-09-17T08:58:13.688Z,6364
2018-09-17T08:59:15.067Z,6596
2018-09-17T09:00:16.470Z,7020
2018-09-17T09:01:17.869Z,8236
2018-09-17T09:02:19.266Z,11816
2018-09-17T09:03:20.662Z,21056
2018-09-17T09:04:22.064Z,29568
2018-09-17T09:05:23.464Z,30176
2018-09-17T09:06:24.867Z,32384
2018-09-17T09:07:26.269Z,36224
2018-09-17T09:08:27.665Z,33248
2018-09-17T09:09:29.092Z,35040
2018-09-17T09:10:30.495Z,36064
2018-09-17T09:11:31.898Z,33920
2018-09-17T09:12:33.309Z,34848
2018-09-17T09:13:34.711Z,33184
2018-09-17T09:14:36.114Z,34624
2018-09-17T09:15:37.520Z,35552
2018-09-17T09:16:38.920Z,33184
2018-09-17T09:17:40.323Z,33696
2018-09-17T09:18:41.726Z,29856
2018-09-17T09:19:43.131Z,32384
2018-09-17T09:20:44.533Z,33664
2018-09-17T09:21:45.941Z,36512
2018-09-17T09:22:47.338Z,38112
2018-09-17T09:23:48.748Z,44864
2018-09-17T09:24:50.157Z,47648
2018-09-17T09:25:51.600Z,47968
2018-09-17T09:26:53.005Z,48768
2018-09-17T09:27:54.409Z,49600
2018-09-17T09:28:55.815Z,51264
2018-09-17T09:29:57.220Z,51808
2018-09-17T09:30:58.624Z,50720
2018-09-17T09:32:00.027Z,51232
2018-09-17T09:33:01.428Z,50496
2018-09-17T09:34:02.839Z,49952
2018-09-17T09:35:04.249Z,51200
2018-09-17T09:36:05.659Z,50496
2018-09-17T09:37:07.062Z,49952
2018-09-17T09:38:08.496Z,48064
2018-09-17T09:39:09.868Z,34976
2018-09-17T09:40:11.275Z,20544
2018-09-17T09:41:12.686Z,13564
2018-09-17T09:42:14.095Z,12384
2018-09-17T09:43:15.504Z,11864
2018-09-17T09:44:16.911Z,11596
2018-09-17T09:45:18.315Z,11444
2018-09-17T09:46:19.765Z,11632
2018-09-17T09:47:21.129Z,12268
2018-09-17T09:48:22.555Z,15288
2018-09-17T09:49:23.958Z,27136
2018-09-17T09:50:25.367Z,33984
2018-09-17T09:51:26.773Z,40256
2018-09-17T09:52:28.175Z,39168
2018-09-17T09:53:29.584Z,39264
2018-09-17T09:54:31.013Z,41056
2018-09-17T09:55:32.420Z,40800
2018-09-17T09:56:33.826Z,42752
2018-09-17T09:57:35.232Z,41472
2018-09-17T09:58:36.636Z,45952
2018-09-17T09:59:38.050Z,50048
2018-09-17T10:00:39.447Z,47456
2018-09-17T10:01:40.852Z,40736
2018-09-17T10:02:42.258Z,28640
2018-09-17T10:03:43.664Z,17120
2018-09-17T10:04:45.072Z,13748
2018-09-17T10:05:46.485Z,13128
2018-09-17T10:06:47.890Z,12844
2018-09-17T10:07:49.299Z,12940
2018-09-17T10:08:50.709Z,12444
2018-09-17T10:09:52.114Z,12368
2018-09-17T10:10:53.526Z,12716
2018-09-17T10:11:54.931Z,12576
2018-09-17T10:12:56.338Z,12580
2018-09-17T10:13:57.745Z,12936
2018-09-17T10:14:59.149Z,12020
2018-09-17T10:16:00.556Z,11980
2018-09-17T10:17:01.962Z,11712
2018-09-17T10:18:03.394Z,11440
2018-09-17T10:19:04.800Z,11996
2018-09-17T10:20:06.206Z,11876
2018-09-17T10:21:07.610Z,11172
2018-09-17T10:22:09.017Z,11036
2018-09-17T10:23:10.419Z,11280
2018-09-17T10:24:11.837Z,11564
2018-09-17T10:25:13.243Z,11360
2018-09-17T10:26:14.653Z,10840
2018-09-17T10:27:16.049Z,10884
2018-09-17T10:28:17.449Z,11276
2018-09-17T10:29:18.856Z,11872
2018-09-17T10:30:20.260Z,11956
2018-09-17T10:31:21.664Z,11624
2018-09-17T10:32:23.066Z,11700
2018-09-17T10:33:24.472Z,11612
2018-09-17T10:34:25.878Z,11328
2018-09-17T10:35:27.279Z,11084
2018-09-17T10:36:28.685Z,11368
2018-09-17T10:37:30.092Z,11104
2018-09-17T10:38:31.552Z,11084
2018-09-17T10:39:33.003Z,12064
2018-09-17T10:40:34.360Z,12176
2018-09-17T10:41:35.763Z,12528
2018-09-17T10:42:37.165Z,12360
2018-09-17T10:43:38.569Z,11972
2018-09-17T10:44:39.972Z,12012
2018-09-17T10:45:41.377Z,11896
2018-09-17T10:46:42.782Z,11872
2018-09-17T10:47:44.190Z,11864
2018-09-17T10:48:45.598Z,11792
2018-09-17T10:49:47.001Z,11940
2018-09-17T10:50:48.406Z,12144
2018-09-17T10:51:49.809Z,12180
2018-09-17T10:52:51.213Z,11972
2018-09-17T10:53:52.620Z,12128
2018-09-17T10:54:54.028Z,12468
2018-09-17T10:55:55.431Z,12856
2018-09-17T10:56:56.877Z,13136
2018-09-17T10:57:58.282Z,13128
2018-09-17T10:58:59.682Z,13992
2018-09-17T11:00:01.092Z,14176
2018-09-17T11:01:02.496Z,13740
2018-09-17T11:02:03.900Z,13792
2018-09-17T11:03:05.306Z,13668
2018-09-17T11:04:06.708Z,13836
2018-09-17T11:05:08.113Z,13860
2018-09-17T11:06:09.514Z,13712
2018-09-17T11:07:10.937Z,13912
2018-09-17T11:08:12.345Z,13512
2018-09-17T11:09:13.746Z,13560
2018-09-17T11:10:15.153Z,13208
2018-09-17T11:11:16.557Z,13452
2018-09-17T11:12:17.964Z,14052
2018-09-17T11:13:19.361Z,14320
2018-09-17T11:14:20.769Z,14736
2018-09-17T11:15:22.173Z,15060
2018-09-17T11:16:23.577Z,15056
2018-09-17T11:17:25.012Z,15072
2018-09-17T11:18:26.385Z,14932
2018-09-17T11:19:27.791Z,15252
2018-09-17T11:20:29.198Z,15268
2018-09-17T11:21:30.600Z,15744
2018-09-17T11:22:32.038Z,16096
2018-09-17T11:23:33.446Z,16384
2018-09-17T11:24:34.851Z,16256
2018-09-17T11:25:36.251Z,16352
2018-09-17T11:26:37.654Z,16320
2018-09-17T11:27:39.091Z,16256
2018-09-17T11:28:40.496Z,16032
2018-09-17T11:29:41.903Z,16128
2018-09-17T11:30:43.323Z,16096
2018-09-17T11:31:44.724Z,15840
2018-09-17T11:32:46.123Z,16000
2018-09-17T11:33:47.530Z,16064
2018-09-17T11:34:48.933Z,16096
2018-09-17T11:35:50.338Z,16160
2018-09-17T11:36:51.766Z,16000
2018-09-17T11:37:53.172Z,16064
2018-09-17T11:38:54.577Z,15872
2018-09-17T11:39:55.982Z,15936
2018-09-17T11:40:57.387Z,15648
2018-09-17T11:41:58.795Z,16256
2018-09-17T11:43:00.205Z,15712
2018-09-17T11:44:01.670Z,15088
2018-09-17T11:45:03.081Z,14904
2018-09-17T11:46:04.483Z,14432
2018-09-17T11:47:05.885Z,14208
2018-09-17T11:48:07.333Z,14196
2018-09-17T11:49:08.690Z,13816
2018-09-17T11:50:10.099Z,14344
2018-09-17T11:51:11.504Z,14524
2018-09-17T11:52:12.907Z,14256
2018-09-17T11:53:14.318Z,14536
2018-09-17T11:54:15.714Z,14228
2018-09-17T11:55:17.122Z,14420
2018-09-17T11:56:18.529Z,14532
2018-09-17T11:57:19.932Z,14208
2018-09-17T11:58:21.337Z,14484
2018-09-17T11:59:22.744Z,14180
2018-09-17T12:00:24.150Z,13744
2018-09-17T12:01:25.560Z,14276
2018-09-17T12:02:26.965Z,14104
2018-09-17T12:03:28.369Z,13976
2018-09-17T12:04:29.775Z,14308
2018-09-17T12:05:31.182Z,14156
2018-09-17T12:06:32.631Z,14444
2018-09-17T12:07:34.047Z,14328
2018-09-17T12:08:35.450Z,14268
2018-09-17T12:09:36.858Z,14560
2018-09-17T12:10:38.258Z,14688
2018-09-17T12:11:39.669Z,14260
2018-09-17T12:12:41.074Z,14548
2018-09-17T12:13:42.478Z,14728
2018-09-17T12:14:43.883Z,14620
2018-09-17T12:15:45.284Z,14664
2018-09-17T12:16:46.689Z,14308
2018-09-17T12:17:48.096Z,13916
2018-09-17T12:18:49.501Z,13312
2018-09-17T12:19:50.905Z,13464
2018-09-17T12:20:52.336Z,13644
2018-09-17T12:21:53.741Z,13724
2018-09-17T12:22:55.156Z,13836
2018-09-17T12:23:56.575Z,13664
2018-09-17T12:24:57.957Z,13948
2018-09-17T12:25:59.366Z,13908
2018-09-17T12:27:00.770Z,13796
2018-09-17T12:28:02.243Z,13716
2018-09-17T12:29:03.647Z,13544
2018-09-17T12:30:05.052Z,13808
2018-09-17T12:31:06.456Z,13956
2018-09-17T12:32:07.861Z,13832
2018-09-17T12:33:09.261Z,13776
2018-09-17T12:34:10.670Z,13968
2018-09-17T12:35:12.073Z,13888
2018-09-17T12:36:13.478Z,13496
2018-09-17T12:37:14.881Z,13588
2018-09-17T12:38:16.285Z,13380
2018-09-17T12:39:18.422Z,13136
2018-09-17T12:40:19.830Z,13128
2018-09-17T12:41:21.237Z,12792
2018-09-17T12:42:22.651Z,12556
2018-09-17T12:43:24.061Z,12752
2018-09-17T12:44:25.462Z,12644
2018-09-17T12:45:26.866Z,12448
2018-09-17T12:46:28.273Z,12712
2018-09-17T12:47:29.676Z,12648
2018-09-17T12:48:31.083Z,12652
2018-09-17T12:49:32.520Z,12832
2018-09-17T12:50:33.952Z,12844
2018-09-17T12:51:35.331Z,12648
2018-09-17T12:52:36.740Z,12536
2018-09-17T12:53:38.144Z,12352
2018-09-17T12:54:39.548Z,12248
2018-09-17T12:55:40.954Z,12072
2018-09-17T12:56:42.361Z,12048
2018-09-17T12:57:43.772Z,12040
2018-09-17T12:58:45.197Z,12072
2018-09-17T12:59:46.582Z,12196
2018-09-17T13:00:47.995Z,12148
2018-09-17T13:01:49.398Z,12296
2018-09-17T13:02:50.803Z,12264
2018-09-17T13:03:52.203Z,12120
2018-09-17T13:04:53.610Z,12100
2018-09-17T13:05:55.019Z,11936
2018-09-17T13:06:56.422Z,11844
2018-09-17T13:07:57.827Z,11504
2018-09-17T13:08:59.231Z,11600
2018-09-17T13:10:00.637Z,11480
2018-09-17T13:11:02.086Z,11636
2018-09-17T13:12:03.497Z,11632
2018-09-17T13:13:04.899Z,11452
2018-09-17T13:14:06.305Z,11536
2018-09-17T13:15:07.757Z,11524
2018-09-17T13:16:09.155Z,11520
2018-09-17T13:17:10.561Z,11500
2018-09-17T13:18:11.973Z,11420
2018-09-17T13:19:13.373Z,11296
2018-09-17T13:20:14.792Z,11244
2018-09-17T13:21:16.181Z,11308
2018-09-17T13:22:17.583Z,11248
2018-09-17T13:23:18.991Z,11212
2018-09-17T13:24:20.400Z,11192
2018-09-17T13:25:21.806Z,11196
2018-09-17T13:26:23.212Z,11136
2018-09-17T13:27:24.613Z,11116
2018-09-17T13:28:26.015Z,11088
2018-09-17T13:29:27.425Z,10988
2018-09-17T13:30:28.829Z,10980
2018-09-17T13:31:30.233Z,10876
2018-09-17T13:32:31.638Z,10856
2018-09-17T13:33:33.133Z,10944
2018-09-17T13:34:34.530Z,10888
2018-09-17T13:35:35.936Z,10784
2018-09-17T13:36:37.398Z,10828
2018-09-17T13:37:38.797Z,10752
2018-09-17T13:38:40.205Z,10860
2018-09-17T13:39:41.606Z,10844
2018-09-17T13:40:43.009Z,10788
2018-09-17T13:41:44.411Z,10704
2018-09-17T13:42:45.816Z,10628
2018-09-17T13:43:47.247Z,10564
2018-09-17T13:44:48.633Z,10528
2018-09-17T13:45:50.040Z,10540
2018-09-17T13:46:51.446Z,10484
2018-09-17T13:47:52.854Z,10392
2018-09-17T13:48:54.277Z,10296
2018-09-17T13:49:55.666Z,10172
2018-09-17T13:50:57.069Z,10004
2018-09-17T13:51:58.500Z,10012
2018-09-17T13:52:59.888Z,10080
2018-09-17T13:54:01.294Z,10012
2018-09-17T13:55:02.718Z,9844
2018-09-17T13:56:04.099Z,9820
2018-09-17T13:57:05.518Z,9776
2018-09-17T13:58:06.908Z,9620
2018-09-17T13:59:08.320Z,9296
2018-09-17T14:00:09.725Z,9108
2018-09-17T14:01:11.129Z,8604
2018-09-17T14:02:12.531Z,8396